Česky Dansk Deutsch English Español Suomi Français Magyar Italiano Nederlands norsk Polski Português svenska Türkçe

 

Het Weer

Kristiansand / Kjevik (Noorwegen)

06:20, 15 agosto 2016 (GMT)

NWNNE
WE
SWSSE
Home            
Kristiansand / Kjevik Lista Flyplass Thisted Lufthavn Skien-Geiteryggen Sindal Flyveplads Stavanger / Sola Aalborg Notodden Torp Oseberg Skive Lufthavn Lindtorp Airport Rygge Hadsund Haugesund / Karmoy Karup Goteborg / Save Stord / Soerstokken Oslo / Fornebu Stauning Lufthavn Dagali Trollhattan Private Goteborg / Landvetter

Om een weerknop op uw website of weblog te plaatsen, copieer onderstaande code en plak die in uw pagina. In het eerste vakje staat HTML-code, in het tweede vakje UBB-code.


Add to Google

Details

Wind speed:1 bf, 2 kn, 1.0 m/s, 2.3 miles/h, 3.7 km/h
Wind direction:Variable
Visibilità totale:Maggiore di 10000 m, 10 km, 32800 ft, 6.2 miles
Clouds:CAVOC
Temperature:14°C, 57°F
Temperatura di rugiada :9°C, 48°F
Pressione atmosferica:1021 hPa, 765.8 mmHg, 30.15 inHg, 1.008 atm
Umidità relativa:71.8 %
METAR:ENCN 150620Z VRB02KT CAVOK 14/09 Q1021

Snelkoppelingen

Actuele weersinformatie van de hele wereld. Voeg locaties toe met het plus (+) symbool. Deze snelkoppelingen kunnen worden toegevoegd aan Google.

Lid van de Technetium groep

website free tracking
StatCounter NetStat W3C Validator

06-07-2022 02:33:20
astro.technetium.be money.technetium.be phote.technetium.be tafeltennistafel.technetium.be www.ligfiets.net